Terminal Aerodrome Forecast
Issued by NWS

Home | Current Version | Previous Version | Text Only | Print | Product List | Glossary On
Versions: 1 2 3 4 5 6 7 8 9 10 11 12 13
000
FTUS43 KLSX 181120
TAFUIN
TAF
KUIN 181120Z 1812/1912 12004KT P6SM FEW060
     FM181500 17005KT P6SM FEW040
     FM182100 18005KT P6SM VCTS SCT050CB
     FM190200 15005KT P6SM SCT150=

USA.gov is the U.S. government's official web portal to all federal, state and local government web resources and services.